Time;durP1;ratioP1;P1;durP2;ratioP2;P2;SDS_P1;SDS_P2;PMS_P1;PMS_P2;Temp;Humidity;BMP_temperature;BMP_pressure;BME280_temperature;BME280_humidity;BME280_pressure;Samples;Min_cycle;Max_cycle;Signal;HPM_P1;HPM_P2
2023/04/12 00:01:32;;;;;;;29.70;15.60;;;;;;;23.86;33.18;99311.63;107919;1259;71071;-67
2023/04/12 00:04:03;;;;;;;27.90;15.50;;;;;;;23.73;33.24;99316.75;107939;1259;73878;-68
2023/04/12 00:06:35;;;;;;;28.30;15.90;;;;;;;23.48;33.46;99315.37;107953;1256;63192;-66
2023/04/12 00:09:03;;;;;;;29.80;16.70;;;;;;;23.47;33.40;99307.30;107898;1258;61401;-67
2023/04/12 00:11:30;;;;;;;25.80;16.00;;;;;;;23.41;33.47;99307.66;107910;1259;72430;-66
2023/04/12 00:13:57;;;;;;;26.80;15.30;;;;;;;23.36;33.49;99303.96;107666;1262;70569;-66
2023/04/12 00:16:26;;;;;;;27.30;15.90;;;;;;;23.40;33.33;99306.58;107916;1259;73600;-67
2023/04/12 00:18:56;;;;;;;23.60;15.40;;;;;;;23.34;33.46;99301.67;108223;1257;63308;-67
2023/04/12 00:21:22;;;;;;;29.20;15.30;;;;;;;23.41;33.35;99301.58;108228;1258;60324;-66
2023/04/12 00:23:51;;;;;;;29.40;15.40;;;;;;;23.51;33.18;99301.84;108250;1260;73925;-68
2023/04/12 00:26:19;;;;;;;27.30;15.00;;;;;;;23.53;33.08;99296.44;108224;1257;69416;-67
2023/04/12 00:28:47;;;;;;;24.80;13.70;;;;;;;23.27;33.27;99291.27;107973;1259;71549;-67
2023/04/12 00:31:13;;;;;;;28.10;15.80;;;;;;;22.90;33.88;99290.71;107917;1259;61508;-66
2023/04/12 00:33:41;;;;;;;27.20;13.90;;;;;;;23.10;33.59;99286.55;107746;1261;60248;-67
2023/04/12 00:36:08;;;;;;;29.70;15.60;;;;;;;23.02;33.79;99285.95;107899;1257;73683;-68
2023/04/12 00:38:36;;;;;;;23.10;14.70;;;;;;;23.23;33.62;99284.13;107915;1260;69370;-68
2023/04/12 00:41:03;;;;;;;28.90;15.00;;;;;;;23.25;33.52;99279.66;107906;1258;70979;-67
2023/04/12 00:43:31;;;;;;;25.90;15.10;;;;;;;23.40;33.35;99278.80;107745;1257;62431;-67
2023/04/12 00:45:58;;;;;;;23.50;14.40;;;;;;;23.08;33.77;99273.09;107951;1256;61439;-66
2023/04/12 00:48:30;;;;;;;;;;;;;;;22.94;34.33;99274.02;107936;1260;72731;-66
2023/04/12 00:51:00;;;;;;;28.60;16.30;;;;;;;23.19;34.04;99270.92;107569;1263;70140;-67
2023/04/12 00:53:27;;;;;;;25.70;15.00;;;;;;;23.20;34.06;99275.13;107784;1258;71114;-68
2023/04/12 00:55:55;;;;;;;28.60;15.60;;;;;;;23.07;34.27;99273.04;107545;1262;63319;-67
2023/04/12 00:58:25;;;;;;;24.40;15.90;;;;;;;22.87;34.56;99274.95;107747;1257;61414;-67
2023/04/12 01:01:00;;;;;;;25.80;15.30;;;;;;;22.75;35.10;99274.15;107838;1258;74114;-66
2023/04/12 01:03:29;;;;;;;24.60;14.90;;;;;;;22.71;35.27;99276.48;107807;1263;70150;-65
2023/04/12 01:06:28;;;;;;;23.50;14.90;;;;;;;22.85;35.17;99272.45;107855;1259;73680;-66
2023/04/12 01:09:03;;;;;;;30.10;15.50;;;;;;;22.79;35.16;99273.77;107689;1258;61061;-66
2023/04/12 01:11:34;;;;;;;29.60;15.20;;;;;;;22.91;34.97;99270.19;107897;1258;60479;-66
2023/04/12 01:14:40;;;;;;;28.10;15.40;;;;;;;23.08;34.76;99267.23;107910;1260;75222;-66
2023/04/12 01:17:08;;;;;;;26.60;15.90;;;;;;;22.97;35.14;99263.89;107926;1257;71696;-66
2023/04/12 01:19:52;;;;;;;30.10;16.60;;;;;;;23.01;35.08;99259.84;107820;1263;72488;-69
2023/04/12 01:22:41;;;;;;;28.20;16.50;;;;;;;23.14;34.99;99258.02;107652;1257;62991;-67
2023/04/12 01:25:15;;;;;;;31.40;16.40;;;;;;;23.25;35.10;99255.16;107725;1257;60446;-67
2023/04/12 01:27:47;;;;;;;31.80;16.30;;;;;;;23.15;35.21;99254.86;107743;1257;75085;-67
2023/04/12 01:30:16;;;;;;;25.70;15.40;;;;;;;23.04;35.53;99248.72;107760;1257;71504;-67
2023/04/12 01:32:45;;;;;;;30.50;15.50;;;;;;;23.01;35.59;99244.46;107868;1260;72694;-66
2023/04/12 01:35:12;;;;;;;27.80;16.10;;;;;;;23.14;35.40;99241.16;107810;1257;60985;-67
2023/04/12 01:37:41;;;;;;;26.80;15.80;;;;;;;23.13;35.48;99235.58;107892;1257;60377;-66
2023/04/12 01:40:11;;;;;;;27.30;16.20;;;;;;;22.96;36.13;99237.73;107816;1257;73179;-65
2023/04/12 01:42:38;;;;;;;25.60;15.10;;;;;;;22.81;36.20;99233.60;107674;1263;70285;-66
2023/04/12 01:45:10;;;;;;;25.40;15.40;;;;;;;22.79;36.26;99232.27;107863;1257;73004;-67
2023/04/12 01:47:40;;;;;;;24.70;15.30;;;;;;;22.55;36.84;99225.52;107913;1256;61430;-66
2023/04/12 01:50:21;;;;;;;26.40;15.70;;;;;;;22.32;37.20;99223.93;107903;1256;60402;-66
2023/04/12 01:53:12;;;;;;;25.60;15.70;;;;;;;22.59;36.93;99217.67;107856;1260;72808;-67
2023/04/12 01:55:41;;;;;;;26.90;16.20;;;;;;;22.63;36.99;99217.27;107787;1257;68724;-67
2023/04/12 01:58:10;;;;;;;26.00;15.70;;;;;;;22.61;37.17;99212.79;107647;1257;72556;-67
2023/04/12 02:00:37;;;;;;;24.90;14.10;;;;;;;22.41;37.42;99206.23;107533;1262;60201;-68
2023/04/12 02:03:06;;;;;;;27.00;15.20;;;;;;;22.45;37.38;99209.25;107614;1260;61196;-67
2023/04/12 02:05:34;;;;;;;27.70;15.90;;;;;;;22.59;37.26;99207.21;107649;1263;73778;-67
2023/04/12 02:08:01;;;;;;;25.50;15.10;;;;;;;22.69;37.15;99206.42;107558;1258;69487;-67
2023/04/12 02:10:35;;;;;;;28.90;16.30;;;;;;;22.81;36.94;99200.48;107658;1261;73510;-67
2023/04/12 02:13:03;;;;;;;23.10;14.50;;;;;;;22.71;37.32;99196.20;107785;1257;60465;-67
2023/04/12 02:15:30;;;;;;;25.10;16.00;;;;;;;22.43;37.62;99193.53;107843;1259;60325;-66
2023/04/12 02:18:02;;;;;;;31.20;16.90;;;;;;;22.58;37.45;99191.23;107846;1256;73988;-66
2023/04/12 02:20:30;;;;;;;25.40;15.50;;;;;;;22.62;37.46;99189.77;107753;1262;69950;-67
2023/04/12 02:22:57;;;;;;;28.10;16.10;;;;;;;22.55;37.48;99185.79;107897;1261;71942;-68
2023/04/12 02:25:26;;;;;;;25.00;15.40;;;;;;;22.65;37.55;99188.06;107736;1257;62401;-66
2023/04/12 02:27:53;;;;;;;26.70;15.80;;;;;;;22.57;37.64;99187.46;107658;1263;61403;-66
2023/04/12 02:30:20;;;;;;;25.40;15.80;;;;;;;22.54;37.75;99182.92;107762;1258;73483;-66
2023/04/12 02:32:52;;;;;;;23.80;15.30;;;;;;;22.12;38.34;99179.41;107686;1263;70641;-66
2023/04/12 02:35:23;;;;;;;25.70;15.70;;;;;;;21.88;38.72;99178.23;107951;1254;72313;-67
2023/04/12 02:37:56;;;;;;;26.70;14.70;;;;;;;21.47;39.68;99176.90;107985;1254;62495;-67
2023/04/12 02:40:27;;;;;;;;;;;;;;;21.68;39.40;99174.48;108110;1254;60354;-67
2023/04/12 02:42:54;;;;;;;27.60;15.40;;;;;;;21.54;39.68;99174.63;107992;1254;73455;-66
2023/04/12 02:45:25;;;;;;;;;;;;;;;21.40;40.15;99174.59;107991;1254;71423;-67
2023/04/12 02:47:51;;;;;;;29.20;16.20;;;;;;;21.63;39.82;99173.58;107901;1254;71062;-69
2023/04/12 02:50:21;;;;;;;24.50;15.50;;;;;;;21.45;40.07;99169.05;108051;1254;61888;-64
2023/04/12 02:52:55;;;;;;;27.30;15.30;;;;;;;21.43;40.35;99172.08;108091;1254;60431;-66
2023/04/12 02:55:22;;;;;;;25.50;16.00;;;;;;;21.73;39.71;99165.06;108063;1254;75023;-67
2023/04/12 02:57:49;;;;;;;27.10;16.10;;;;;;;21.65;39.94;99161.81;108004;1260;69236;-65
2023/04/12 03:00:17;;;;;;;30.60;16.60;;;;;;;21.51;40.20;99158.83;108055;1254;73062;-68
2023/04/12 03:02:51;;;;;;;;;;;;;;;21.71;39.76;99156.83;108145;1254;60417;-68
2023/04/12 03:05:26;;;;;;;36.50;17.30;;;;;;;21.79;39.57;99158.55;108097;1257;60267;-67
2023/04/12 03:07:53;;;;;;;30.50;16.00;;;;;;;21.95;39.37;99156.33;108174;1254;75123;-67
2023/04/12 03:10:26;;;;;;;23.50;15.60;;;;;;;22.16;38.97;99156.26;108069;1254;68683;-66
2023/04/12 03:13:01;;;;;;;25.90;15.50;;;;;;;22.31;38.61;99153.77;108149;1257;72353;-67
2023/04/12 03:15:46;;;;;;;29.80;17.90;;;;;;;22.23;38.75;99152.80;108163;1253;61447;-66
2023/04/12 03:18:13;;;;;;;26.30;16.00;;;;;;;22.16;38.79;99147.41;108083;1254;61863;-66
2023/04/12 03:20:47;;;;;;;27.00;16.40;;;;;;;22.11;38.94;99147.76;108155;1254;75006;-66
2023/04/12 03:23:20;;;;;;;27.00;16.50;;;;;;;22.06;38.84;99144.65;108185;1253;70646;-66
2023/04/12 03:25:51;;;;;;;27.50;17.00;;;;;;;22.12;38.89;99144.38;108157;1255;73348;-67
2023/04/12 03:28:37;;;;;;;27.70;16.90;;;;;;;22.25;38.82;99142.89;108195;1253;60680;-66
2023/04/12 03:31:06;;;;;;;28.20;16.10;;;;;;;22.41;38.33;99142.40;108192;1255;61570;-67
2023/04/12 03:33:39;;;;;;;26.20;16.50;;;;;;;22.51;38.45;99140.52;108203;1253;74515;-66
2023/04/12 03:36:11;;;;;;;26.50;16.20;;;;;;;22.37;38.57;99134.38;108159;1255;71013;-66
2023/04/12 03:38:37;;;;;;;28.10;16.00;;;;;;;22.46;38.41;99132.73;108059;1257;72457;-65
2023/04/12 03:41:06;;;;;;;23.60;15.50;;;;;;;22.37;38.57;99131.36;107933;1254;62851;-65
2023/04/12 03:43:36;;;;;;;;;;;;;;;22.25;38.75;99128.64;108021;1254;59537;-66
2023/04/12 03:46:06;;;;;;;28.80;15.80;;;;;;;22.00;39.17;99125.34;108006;1257;74883;-67
2023/04/12 03:48:33;;;;;;;26.80;14.40;;;;;;;21.99;39.41;99125.72;107886;1254;69350;-68
2023/04/12 03:51:06;;;;;;;24.90;15.40;;;;;;;22.00;39.23;99128.03;108033;1253;72331;-67
2023/04/12 03:53:34;;;;;;;24.50;15.10;;;;;;;21.85;39.50;99128.83;107922;1254;60440;-68
2023/04/12 03:56:01;;;;;;;26.00;16.10;;;;;;;21.93;39.45;99130.73;108162;1253;60882;-67
2023/04/12 03:58:32;;;;;;;29.30;16.20;;;;;;;22.07;39.34;99125.04;108236;1253;73101;-67
2023/04/12 04:01:04;;;;;;;25.80;14.30;;;;;;;22.19;39.27;99128.73;108215;1254;69630;-67
2023/04/12 04:03:35;;;;;;;27.20;15.40;;;;;;;22.11;39.29;99129.29;107993;1255;73672;-66
2023/04/12 04:06:16;;;;;;;23.40;14.10;;;;;;;22.16;39.22;99127.17;108136;1253;60729;-66
2023/04/12 04:08:46;;;;;;;25.30;14.50;;;;;;;22.18;39.25;99123.79;108168;1254;59798;-67
2023/04/12 04:11:13;;;;;;;22.50;13.70;;;;;;;22.32;39.13;99125.25;108145;1254;73926;-68
2023/04/12 04:13:46;;;;;;;25.10;14.00;;;;;;;22.11;39.34;99124.84;108130;1254;71316;-66
2023/04/12 04:16:16;;;;;;;22.30;14.00;;;;;;;22.06;39.62;99121.38;108031;1254;72480;-66
2023/04/12 04:18:44;;;;;;;22.40;13.80;;;;;;;22.03;39.76;99126.50;108036;1253;61236;-67
2023/04/12 04:21:13;;;;;;;18.70;13.10;;;;;;;21.81;40.27;99125.65;108227;1256;60304;-67
2023/04/12 04:23:46;;;;;;;18.60;12.00;;;;;;;21.85;40.21;99123.66;108021;1254;73144;-67
2023/04/12 04:26:19;;;;;;;21.10;12.30;;;;;;;22.03;39.87;99121.15;108161;1254;71832;-66
2023/04/12 04:28:52;;;;;;;22.70;13.20;;;;;;;22.10;40.11;99122.02;108131;1254;73508;-67
2023/04/12 04:31:25;;;;;;;19.80;13.20;;;;;;;22.74;39.07;99118.21;108113;1254;60396;-66
2023/04/12 04:33:57;;;;;;;21.50;13.30;;;;;;;22.61;39.10;99120.11;108141;1253;61320;-67
2023/04/12 04:36:29;;;;;;;21.20;12.20;;;;;;;22.83;38.88;99117.69;108041;1254;73963;-67
2023/04/12 04:38:57;;;;;;;18.20;11.50;;;;;;;22.70;39.10;99115.94;108137;1254;70548;-67
2023/04/12 04:41:40;;;;;;;21.80;11.80;;;;;;;22.88;38.86;99119.46;108137;1253;73634;-67
2023/04/12 04:44:12;;;;;;;24.10;13.20;;;;;;;22.36;39.71;99120.29;108124;1253;62240;-66
2023/04/12 04:46:47;;;;;;;20.60;13.00;;;;;;;22.24;40.15;99120.52;108044;1255;61210;-67
2023/04/12 04:49:15;;;;;;;26.90;12.90;;;;;;;21.94;40.61;99118.42;108156;1254;73867;-68
2023/04/12 04:51:43;;;;;;;22.70;14.00;;;;;;;22.07;40.40;99116.52;108019;1253;69699;-68
2023/04/12 04:54:10;;;;;;;19.10;12.30;;;;;;;21.72;41.09;99114.97;108079;1254;72154;-67
2023/04/12 04:56:46;;;;;;;23.10;12.60;;;;;;;21.87;40.92;99116.18;108165;1254;62432;-66
2023/04/12 04:59:16;;;;;;;20.00;12.20;;;;;;;22.08;40.53;99112.95;108188;1253;61653;-67
2023/04/12 05:01:43;;;;;;;21.60;13.40;;;;;;;22.03;41.00;99114.02;107908;1254;73495;-67
2023/04/12 05:04:19;;;;;;;22.10;13.10;;;;;;;22.19;40.57;99112.06;108106;1254;69575;-67
2023/04/12 05:06:48;;;;;;;19.60;11.60;;;;;;;22.36;40.24;99119.04;108208;1253;74015;-67
2023/04/12 05:09:17;;;;;;;18.20;12.00;;;;;;;22.46;40.23;99117.55;108147;1254;59787;-66
2023/04/12 05:11:51;;;;;;;20.60;12.50;;;;;;;22.26;40.33;99117.17;108100;1253;61410;-67
2023/04/12 05:14:17;;;;;;;21.60;12.50;;;;;;;22.15;40.73;99115.67;108013;1254;75111;-67
2023/04/12 05:16:46;;;;;;;22.00;12.30;;;;;;;22.13;40.82;99112.82;108023;1253;70822;-66
2023/04/12 05:19:13;;;;;;;24.20;12.50;;;;;;;21.96;41.18;99114.41;108044;1253;73880;-67
2023/04/12 05:21:40;;;;;;;19.90;12.50;;;;;;;22.05;40.95;99114.45;108158;1253;62096;-67
2023/04/12 05:24:07;;;;;;;23.80;12.80;;;;;;;22.22;40.81;99116.02;108143;1254;59226;-67
2023/04/12 05:26:42;;;;;;;23.70;13.10;;;;;;;22.43;40.50;99113.54;108169;1254;72969;-66
2023/04/12 05:29:12;;;;;;;27.00;13.00;;;;;;;22.67;40.14;99111.56;108178;1254;68543;-67
2023/04/12 05:31:39;;;;;;;26.30;13.70;;;;;;;22.70;39.93;99106.14;108127;1254;72884;-66
2023/04/12 05:34:11;;;;;;;17.50;10.90;;;;;;;22.64;40.22;99106.70;108044;1259;62062;-67
2023/04/12 05:36:43;;;;;;;25.30;13.30;;;;;;;22.69;40.08;99107.09;108146;1254;60497;-67
2023/04/12 05:39:10;;;;;;;22.10;11.70;;;;;;;22.73;40.05;99105.09;108069;1254;75380;-67
2023/04/12 05:41:39;;;;;;;23.80;12.00;;;;;;;22.71;40.01;99101.42;108020;1254;69247;-66
2023/04/12 05:44:06;;;;;;;18.70;12.00;;;;;;;22.60;40.14;99101.36;108169;1254;73240;-67
2023/04/12 05:46:35;;;;;;;18.20;12.40;;;;;;;22.42;40.41;99101.09;108010;1254;60620;-66
2023/04/12 05:49:07;;;;;;;18.30;11.70;;;;;;;22.62;40.15;99096.02;108045;1254;60296;-67
2023/04/12 05:51:34;;;;;;;19.20;11.70;;;;;;;22.65;40.16;99097.16;107983;1254;75052;-67
2023/04/12 05:54:14;;;;;;;18.90;11.60;;;;;;;22.54;40.49;99094.58;108146;1253;68397;-67
2023/04/12 05:56:41;;;;;;;19.60;11.80;;;;;;;22.36;40.61;99095.83;108110;1254;72555;-67
2023/04/12 05:59:09;;;;;;;20.60;11.50;;;;;;;22.35;40.68;99096.10;107997;1253;61355;-67
2023/04/12 06:01:41;;;;;;;17.00;11.20;;;;;;;22.44;40.75;99094.88;108038;1254;60438;-67
2023/04/12 06:04:08;;;;;;;22.10;12.60;;;;;;;22.55;40.59;99088.76;108038;1254;75360;-66
2023/04/12 06:06:37;;;;;;;22.00;12.40;;;;;;;22.29;41.00;99084.41;108145;1253;70938;-67
2023/04/12 06:09:06;;;;;;;21.70;11.90;;;;;;;22.29;41.15;99087.12;107976;1254;73856;-67
2023/04/12 06:11:32;;;;;;;17.50;11.30;;;;;;;22.39;41.00;99087.14;108028;1253;62187;-67
2023/04/12 06:14:05;;;;;;;18.00;11.80;;;;;;;22.18;41.41;99082.42;108140;1253;60872;-67
2023/04/12 06:16:35;;;;;;;18.80;12.50;;;;;;;22.40;41.12;99081.13;108039;1254;74232;-66
2023/04/12 06:19:01;;;;;;;18.70;11.30;;;;;;;22.11;41.60;99082.00;108147;1253;71443;-67
2023/04/12 06:21:30;;;;;;;18.30;11.40;;;;;;;22.20;41.63;99078.17;108100;1253;73915;-66
2023/04/12 06:23:57;;;;;;;18.50;11.40;;;;;;;22.28;41.49;99076.08;108013;1253;61273;-66
2023/04/12 06:26:24;;;;;;;18.20;10.40;;;;;;;22.72;40.86;99069.95;108058;1253;60412;-66
2023/04/12 06:28:54;;;;;;;16.20;11.30;;;;;;;22.82;40.65;99073.05;108050;1254;73410;-65
2023/04/12 06:31:21;;;;;;;19.50;10.30;;;;;;;23.01;40.31;99066.06;108043;1259;69546;-65
2023/04/12 06:33:49;;;;;;;16.20;9.90;;;;;;;22.42;41.07;99067.63;107895;1254;72945;-66
2023/04/12 06:36:16;;;;;;;16.30;11.00;;;;;;;22.36;41.47;99062.23;108013;1254;60505;-67
2023/04/12 06:38:43;;;;;;;16.60;10.30;;;;;;;22.80;40.82;99060.52;108034;1253;61537;-67
2023/04/12 06:41:11;;;;;;;15.70;10.20;;;;;;;22.49;41.25;99057.50;108050;1257;74227;-68
2023/04/12 06:43:39;;;;;;;16.80;10.00;;;;;;;22.67;41.23;99060.67;107998;1253;70795;-69
2023/04/12 06:46:07;;;;;;;14.00;9.80;;;;;;;22.76;40.94;99059.30;107992;1254;73744;-65
2023/04/12 06:48:36;;;;;;;19.50;10.70;;;;;;;22.70;40.93;99060.16;108012;1254;60521;-66
2023/04/12 06:51:02;;;;;;;16.30;10.40;;;;;;;22.80;40.91;99058.33;108028;1254;60612;-66
2023/04/12 06:53:33;;;;;;;14.90;9.30;;;;;;;22.29;41.58;99059.16;108073;1254;74110;-67
2023/04/12 06:56:04;;;;;;;16.50;9.10;;;;;;;22.23;41.87;99058.52;108135;1254;71497;-66
2023/04/12 06:58:31;;;;;;;14.70;10.00;;;;;;;22.41;41.72;99057.40;108136;1254;73771;-67
2023/04/12 07:01:07;;;;;;;14.80;10.30;;;;;;;22.63;41.27;99057.84;108173;1254;61571;-65
2023/04/12 07:03:35;;;;;;;16.40;9.40;;;;;;;22.64;41.36;99055.16;108160;1253;59806;-66
2023/04/12 07:06:03;;;;;;;15.80;8.90;;;;;;;22.37;41.62;99051.73;108172;1253;73705;-66
2023/04/12 07:08:50;;;;;;;15.90;9.00;;;;;;;21.82;42.69;99054.86;108143;1254;70420;-66
2023/04/12 07:11:16;;;;;;;14.20;9.60;;;;;;;22.01;42.51;99054.31;108118;1254;60258;-66
2023/04/12 07:14:00;;;;;;;14.40;10.40;;;;;;;22.05;42.40;99055.39;108031;1253;63009;-66
2023/04/12 07:16:29;;;;;;;14.10;9.10;;;;;;;21.81;42.76;99050.66;107997;1253;59465;-67
2023/04/12 07:18:56;;;;;;;12.70;8.80;;;;;;;22.21;42.30;99054.10;108125;1254;72772;-67
2023/04/12 07:21:31;;;;;;;13.70;8.70;;;;;;;22.03;42.76;99051.27;108031;1253;71627;-68
2023/04/12 07:23:58;;;;;;;13.70;9.10;;;;;;;22.10;42.28;99052.55;108009;1257;72710;-67
2023/04/12 07:26:25;;;;;;;15.70;9.50;;;;;;;22.10;42.41;99052.05;108002;1253;63061;-66
2023/04/12 07:28:51;;;;;;;16.40;9.20;;;;;;;22.19;42.61;99045.90;108044;1253;60329;-67
2023/04/12 07:31:19;;;;;;;15.50;9.60;;;;;;;22.41;42.33;99046.92;108019;1253;73271;-68
2023/04/12 07:33:45;;;;;;;16.30;9.40;;;;;;;22.69;41.91;99046.48;108048;1253;69857;-65
2023/04/12 07:36:15;;;;;;;16.90;9.40;;;;;;;22.90;41.32;99043.60;108009;1257;72175;-67
2023/04/12 07:38:42;;;;;;;17.00;9.60;;;;;;;22.79;41.42;99041.73;108090;1254;61805;-67
2023/04/12 07:41:11;;;;;;;13.30;9.30;;;;;;;22.75;41.40;99044.73;108147;1253;61474;-67
2023/04/12 07:43:39;;;;;;;15.90;9.90;;;;;;;22.76;41.33;99049.82;108161;1253;73239;-67
2023/04/12 07:46:07;;;;;;;13.60;8.80;;;;;;;22.80;41.15;99048.70;108140;1256;69301;-67
2023/04/12 07:48:37;;;;;;;15.10;9.10;;;;;;;22.84;41.32;99043.61;108145;1253;73682;-67
2023/04/12 07:51:06;;;;;;;12.40;8.60;;;;;;;22.67;41.60;99042.23;108140;1253;61077;-67
2023/04/12 07:53:33;;;;;;;14.60;9.00;;;;;;;22.66;41.66;99042.96;108161;1253;61398;-66
2023/04/12 07:56:05;;;;;;;17.70;9.40;;;;;;;22.94;41.21;99040.52;108178;1253;74477;-67
2023/04/12 07:58:33;;;;;;;16.40;10.00;;;;;;;23.00;41.06;99040.69;108141;1254;70381;-66
2023/04/12 08:01:00;;;;;;;13.10;9.00;;;;;;;22.88;41.24;99039.06;108165;1253;71833;-66
2023/04/12 08:03:28;;;;;;;12.90;9.50;;;;;;;22.80;41.67;99039.20;108222;1253;63159;-66
2023/04/12 08:05:55;;;;;;;14.10;9.20;;;;;;;22.78;41.63;99039.27;108150;1254;61222;-67
2023/04/12 08:08:24;;;;;;;15.20;10.00;;;;;;;22.73;41.87;99040.00;108169;1256;73928;-66
2023/04/12 08:10:52;;;;;;;14.80;10.40;;;;;;;23.07;41.30;99034.28;108189;1253;70588;-67
2023/04/12 08:13:18;;;;;;;14.80;9.20;;;;;;;23.01;41.32;99037.92;108165;1254;72808;-67
2023/04/12 08:15:46;;;;;;;16.40;9.60;;;;;;;23.08;41.18;99032.73;108165;1254;61677;-67
2023/04/12 08:18:13;;;;;;;14.80;9.40;;;;;;;23.06;41.35;99032.16;108188;1253;60421;-66
2023/04/12 08:20:40;;;;;;;16.20;9.90;;;;;;;22.89;41.74;99035.79;108168;1254;73976;-67
2023/04/12 08:23:10;;;;;;;13.20;8.20;;;;;;;22.99;41.56;99033.81;108202;1254;71568;-66
2023/04/12 08:25:38;;;;;;;17.40;9.20;;;;;;;22.83;41.77;99033.77;108217;1253;73649;-67
2023/04/12 08:28:08;;;;;;;15.30;9.10;;;;;;;22.62;42.05;99035.90;108184;1253;62035;-66
2023/04/12 08:30:35;;;;;;;12.60;8.50;;;;;;;22.30;42.95;99034.17;108200;1254;59179;-66
2023/04/12 08:33:02;;;;;;;14.70;9.00;;;;;;;22.18;43.25;99030.63;108115;1254;72734;-66
2023/04/12 08:35:29;;;;;;;13.30;9.30;;;;;;;22.60;42.79;99028.58;108299;1253;68855;-67
2023/04/12 08:38:06;;;;;;;13.00;9.30;;;;;;;22.85;42.19;99027.85;108269;1254;73046;-66
2023/04/12 08:40:34;;;;;;;12.90;8.60;;;;;;;22.85;42.09;99025.26;108227;1253;62767;-67
2023/04/12 08:43:02;;;;;;;15.00;8.40;;;;;;;22.66;42.63;99023.30;108259;1256;60447;-67
2023/04/12 08:45:31;;;;;;;12.30;8.50;;;;;;;22.65;42.85;99023.23;108115;1253;74857;-67
2023/04/12 08:50:28;;;;;;;14.80;8.40;;;;;;;18.19;52.72;99027.07;104663;1292;601173;-66
2023/04/12 08:52:54;;;;;;;13.80;8.50;;;;;;;19.69;49.68;99025.05;107294;1266;59123;-66
2023/04/12 08:55:24;;;;;;;14.80;8.50;;;;;;;20.14;48.67;99017.10;107319;1267;61305;-67
2023/04/12 08:57:53;;;;;;;12.30;8.10;;;;;;;20.31;48.57;99014.81;107988;1256;73190;-67
2023/04/12 09:00:20;;;;;;;13.50;8.70;;;;;;;20.28;48.73;99013.06;108012;1256;69913;-67
2023/04/12 09:02:51;;;;;;;14.80;9.00;;;;;;;20.47;48.35;99009.91;107757;1254;155529;-67
2023/04/12 09:05:29;;;;;;;13.60;8.20;;;;;;;20.66;48.13;99005.89;108195;1253;63228;-67
2023/04/12 09:07:57;;;;;;;11.80;8.30;;;;;;;20.68;47.75;99006.39;108158;1253;61068;-66
2023/04/12 09:10:32;;;;;;;12.80;8.60;;;;;;;20.94;47.24;99004.14;108249;1256;71305;-67
2023/04/12 09:13:00;;;;;;;13.90;9.10;;;;;;;20.82;47.29;99002.07;108076;1252;70291;-67
2023/04/12 09:15:27;;;;;;;15.40;9.00;;;;;;;21.02;46.94;98999.16;108125;1253;72681;-67
2023/04/12 09:18:10;;;;;;;13.30;8.40;;;;;;;20.97;46.96;98996.98;108073;1253;62255;-67
2023/04/12 09:20:39;;;;;;;13.50;7.80;;;;;;;21.00;47.04;98997.65;108194;1252;61400;-66
2023/04/12 09:23:20;;;;;;;14.10;9.00;;;;;;;21.05;46.87;98995.70;108102;1253;74047;-67
2023/04/12 09:25:53;;;;;;;23.10;12.00;;;;;;;21.23;46.81;98992.89;108078;1258;70372;-67
2023/04/12 09:28:22;;;;;;;26.10;12.00;;;;;;;21.47;46.41;98993.48;108068;1253;73911;-66
2023/04/12 09:30:51;;;;;;;13.00;8.70;;;;;;;21.55;46.13;98993.92;108131;1253;60985;-67
2023/04/12 09:33:42;;;;;;;15.50;8.70;;;;;;;21.28;46.75;98995.04;108150;1253;61906;-67
2023/04/12 09:36:12;;;;;;;11.40;8.50;;;;;;;20.81;47.70;98989.85;108144;1253;73054;-68
2023/04/12 09:38:41;;;;;;;13.30;7.90;;;;;;;21.30;46.52;98987.52;108110;1253;71264;-65
2023/04/12 09:41:18;;;;;;;9.80;7.10;;;;;;;21.50;46.27;98989.78;108083;1253;72316;-66
2023/04/12 09:43:49;;;;;;;13.10;7.80;;;;;;;21.62;46.16;98988.81;108077;1253;63235;-66
2023/04/12 09:46:18;;;;;;;14.80;7.50;;;;;;;21.58;46.16;98987.89;108103;1253;60753;-66
2023/04/12 09:48:53;;;;;;;10.90;7.20;;;;;;;21.63;46.03;98988.23;108040;1252;74034;-66
2023/04/12 09:51:25;;;;;;;14.20;7.70;;;;;;;21.65;45.74;98990.06;108116;1253;69779;-66
2023/04/12 09:54:02;;;;;;;12.70;6.80;;;;;;;21.89;45.07;98986.81;108125;1253;73642;-67
2023/04/12 09:56:35;;;;;;;11.80;7.80;;;;;;;21.93;45.07;98987.75;108116;1253;61677;-67
2023/04/12 09:59:09;;;;;;;15.00;7.90;;;;;;;21.93;45.01;98982.02;108220;1253;61523;-66
2023/04/12 10:01:40;;;;;;;13.60;7.80;;;;;;;22.01;45.15;98980.15;108069;1255;72470;-66
2023/04/12 10:04:08;;;;;;;13.40;7.80;;;;;;;21.94;44.96;98981.08;108136;1253;71332;-67
2023/04/12 10:06:42;;;;;;;12.70;7.10;;;;;;;21.89;45.35;98982.35;108051;1253;73787;-67
2023/04/12 10:09:09;;;;;;;15.60;8.00;;;;;;;21.73;45.49;98981.13;108027;1253;60691;-66
2023/04/12 10:11:39;;;;;;;12.70;7.60;;;;;;;21.92;45.24;98977.39;107996;1253;60654;-66
2023/04/12 10:14:06;;;;;;;10.80;5.80;;;;;;;21.93;45.24;98981.58;108150;1253;71954;-67
2023/04/12 10:16:38;;;;;;;14.20;7.50;;;;;;;22.12;44.69;98983.89;108120;1253;70472;-66
2023/04/12 10:19:05;;;;;;;12.40;7.30;;;;;;;22.06;44.91;98981.66;108198;1253;72754;-66
2023/04/12 10:21:32;;;;;;;14.00;8.00;;;;;;;22.08;45.02;98980.74;108114;1253;61621;-67
2023/04/12 10:24:02;;;;;;;11.20;7.50;;;;;;;22.12;44.86;98982.28;108104;1253;61248;-67
2023/04/12 10:26:29;;;;;;;9.10;6.70;;;;;;;21.87;45.32;98985.05;108195;1253;74248;-66
2023/04/12 10:29:22;;;;;;;11.90;7.60;;;;;;;21.90;45.48;98982.92;108161;1253;71499;-68
2023/04/12 10:31:49;;;;;;;16.70;7.70;;;;;;;22.04;45.40;98981.48;108194;1253;71835;-68
2023/04/12 10:34:16;;;;;;;11.50;7.90;;;;;;;21.83;45.68;98984.85;108138;1253;62717;-67
2023/04/12 10:36:51;;;;;;;11.40;7.70;;;;;;;22.14;45.08;98975.21;108129;1253;60320;-67
2023/04/12 10:39:37;;;;;;;10.60;6.90;;;;;;;22.26;44.86;98977.14;108079;1252;74094;-68
2023/04/12 10:42:26;;;;;;;10.90;7.90;;;;;;;22.27;44.97;98975.93;108074;1253;71617;-66
2023/04/12 10:45:24;;;;;;;11.00;7.40;;;;;;;22.59;44.47;98974.30;108130;1253;72858;-67
2023/04/12 10:47:51;;;;;;;9.00;6.90;;;;;;;22.58;44.48;98972.89;108108;1253;61829;-66
2023/04/12 10:50:28;;;;;;;12.40;6.70;;;;;;;22.65;44.11;98976.78;108070;1253;60081;-66
2023/04/12 10:53:23;;;;;;;9.00;7.20;;;;;;;22.70;43.91;98971.96;108098;1253;73954;-67
2023/04/12 10:55:51;;;;;;;10.40;7.10;;;;;;;22.90;43.75;98966.03;107996;1254;70340;-66
2023/04/12 10:58:54;;;;;;;12.50;7.70;;;;;;;23.07;43.31;98972.84;108020;1256;73739;-66
2023/04/12 11:01:22;;;;;;;13.90;8.60;;;;;;;22.74;43.86;98971.37;107974;1254;61348;-68
2023/04/12 11:04:14;;;;;;;12.80;8.10;;;;;;;22.47;44.73;98970.82;108173;1253;61360;-66
2023/04/12 11:06:55;;;;;;;14.80;8.90;;;;;;;23.00;43.70;98971.30;108103;1253;73111;-66
2023/04/12 11:09:59;;;;;;;23.50;12.20;;;;;;;22.97;43.92;98966.41;107855;1253;70968;-67
2023/04/12 11:12:32;;;;;;;18.60;9.30;;;;;;;23.15;43.35;98968.89;108037;1253;72410;-68
2023/04/12 11:15:03;;;;;;;16.10;9.50;;;;;;;23.16;43.06;98965.80;108059;1254;62510;-66
2023/04/12 11:17:53;;;;;;;21.20;10.60;;;;;;;22.89;43.68;98967.73;108013;1252;61127;-66
2023/04/12 11:20:20;;;;;;;19.20;13.70;;;;;;;22.65;43.94;98966.40;108191;1254;73987;-66
2023/04/12 11:22:46;;;;;;;14.20;9.30;;;;;;;22.32;44.68;98968.83;108163;1253;71236;-67
2023/04/12 11:25:15;;;;;;;10.30;7.30;;;;;;;22.33;44.68;98970.63;108172;1254;73679;-67
2023/04/12 11:27:49;;;;;;;12.50;8.00;;;;;;;22.48;44.55;98961.77;108046;1252;63158;-67
2023/04/12 11:30:18;;;;;;;16.00;9.20;;;;;;;22.42;44.81;98965.99;108239;1254;61120;-66
2023/04/12 11:32:46;;;;;;;16.40;8.20;;;;;;;22.40;44.80;98964.88;108148;1256;71396;-67
2023/04/12 11:35:13;;;;;;;18.80;9.90;;;;;;;22.55;44.52;98963.35;108147;1254;71813;-67